Time;durP1;ratioP1;P1;durP2;ratioP2;P2;SDS_P1;SDS_P2;PMS_P1;PMS_P2;Temp;Humidity;BMP_temperature;BMP_pressure;BME280_temperature;BME280_humidity;BME280_pressure;Samples;Min_cycle;Max_cycle;Signal;HPM_P1;HPM_P2
2024/01/05 00:00:31;;;;;;;;;;;;;;;21.19;28.12;97111.84;4998971;28;1065;-76
2024/01/05 00:02:59;;;;;;;;;;;;;;;21.39;27.56;97111.50;4999086;28;1190;-76
2024/01/05 00:05:25;;;;;;;;;;;;;;;21.29;27.82;97117.06;4998409;28;1671;-76
2024/01/05 00:07:51;;;;;;;;;;;;;;;20.68;28.57;97118.63;4998403;28;1289;-77
2024/01/05 00:10:17;;;;;;;;;;;;;;;20.55;28.90;97123.53;4998831;28;1068;-76
2024/01/05 00:12:42;;;;;;;;;;;;;;;20.88;28.44;97131.63;5029831;28;1902;-77
2024/01/05 00:15:10;;;;;;;;;;;;;;;21.08;28.09;97143.38;5020742;28;1010;-76
2024/01/05 00:17:37;;;;;;;;;;;;;;;21.08;28.50;97143.38;5038516;28;1300;-77
2024/01/05 00:20:03;;;;;;;;;;;;;;;21.46;27.48;97131.03;5039077;28;1376;-77
2024/01/05 00:22:29;;;;;;;;;;;;;;;21.11;27.75;97139.63;5039688;28;1219;-76
2024/01/05 00:24:54;;;;;;;;;;;;;;;20.56;29.01;97133.59;5039089;28;900;-77
2024/01/05 00:27:20;;;;;;;;;;;;;;;20.61;28.84;97135.03;5055207;28;1552;-77
2024/01/05 00:29:46;;;;;;;;;;;;;;;20.91;28.38;97133.53;5056908;28;989;-76
2024/01/05 00:32:11;;;;;;;;;;;;;;;21.25;27.78;97130.59;5022796;28;1959;-77
2024/01/05 00:34:37;;;;;;;;;;;;;;;21.33;28.01;97122.63;5057108;28;909;-77
2024/01/05 00:37:03;;;;;;;;;;;;;;;21.04;28.24;97123.72;5056564;28;1466;-77
2024/01/05 00:39:29;;;;;;;;;;;;;;;21.58;27.53;97121.66;5039152;28;906;-77
2024/01/05 00:41:54;;;;;;;;;;;;;;;20.95;28.37;97134.19;5039410;28;919;-77
2024/01/05 00:44:20;;;;;;;;;;;;;;;20.60;28.81;97127.81;5039174;28;1264;-76
2024/01/05 00:46:46;;;;;;;;;;;;;;;20.80;28.96;97134.72;5055807;28;1269;-77
2024/01/05 00:49:11;;;;;;;;;;;;;;;21.07;28.45;97141.78;5056397;28;1096;-77
2024/01/05 00:51:37;;;;;;;;;;;;;;;21.31;27.97;97142.91;5056663;28;905;-76
2024/01/05 00:54:02;;;;;;;;;;;;;;;21.00;28.36;97142.88;5033690;28;2000;-76
2024/01/05 00:56:28;;;;;;;;;;;;;;;21.12;28.29;97146.84;5033026;28;1432;-77
2024/01/05 00:58:54;;;;;;;;;;;;;;;21.44;27.83;97144.84;5017537;28;1195;-77
2024/01/05 01:01:19;;;;;;;;;;;;;;;21.23;28.11;97144.41;4978274;28;1331;-77
2024/01/05 01:03:45;;;;;;;;;;;;;;;21.39;27.97;97143.41;4978803;28;1076;-76
2024/01/05 01:06:10;;;;;;;;;;;;;;;21.35;27.98;97148.44;4994139;28;1471;-77
2024/01/05 01:08:36;;;;;;;;;;;;;;;21.07;28.27;97138.97;4994299;28;955;-77
2024/01/05 01:11:03;;;;;;;;;;;;;;;20.85;28.86;97129.72;4978591;28;939;-76
2024/01/05 01:13:29;;;;;;;;;;;;;;;20.75;28.55;97129.66;4978285;28;1976;-76
2024/01/05 01:15:54;;;;;;;;;;;;;;;20.96;28.61;97132.94;4994165;28;1617;-77
2024/01/05 01:18:20;;;;;;;;;;;;;;;21.01;28.44;97135.16;4978158;28;1347;-77
2024/01/05 01:20:46;;;;;;;;;;;;;;;21.45;27.92;97129.44;4994661;28;939;-76
2024/01/05 01:23:11;;;;;;;;;;;;;;;21.39;28.04;97128.47;4986335;28;1319;-77
2024/01/05 01:25:38;;;;;;;;;;;;;;;21.22;28.10;97125.84;4962088;28;964;-76
2024/01/05 01:28:04;;;;;;;;;;;;;;;21.19;28.17;97129.63;4994226;28;1125;-76
2024/01/05 01:30:29;;;;;;;;;;;;;;;21.67;27.57;97130.19;4978558;28;935;-77
2024/01/05 01:32:55;;;;;;;;;;;;;;;21.17;28.23;97134.94;5030519;28;2025;-76
2024/01/05 01:35:20;;;;;;;;;;;;;;;20.95;28.79;97137.81;5021640;28;1155;-76
2024/01/05 01:37:46;;;;;;;;;;;;;;;20.88;28.83;97125.97;5037832;28;994;-76
2024/01/05 01:40:12;;;;;;;;;;;;;;;21.35;27.99;97130.66;5055876;28;1449;-77
2024/01/05 01:42:37;;;;;;;;;;;;;;;21.07;28.72;97134.09;5037954;28;1316;-76
2024/01/05 01:45:03;;;;;;;;;;;;;;;21.27;28.19;97133.75;4997261;28;1233;-77
2024/01/05 01:47:29;;;;;;;;;;;;;;;21.45;27.96;97135.09;4997061;28;1180;-77
2024/01/05 01:49:55;;;;;;;;;;;;;;;21.44;28.16;97133.53;4996950;28;982;-77
2024/01/05 01:52:20;;;;;;;;;;;;;;;21.21;28.58;97146.91;4993273;28;1906;-76
2024/01/05 01:54:46;;;;;;;;;;;;;;;21.48;27.95;97151.16;4994126;28;1042;-77
2024/01/05 01:57:11;;;;;;;;;;;;;;;21.65;27.36;97132.66;4977759;28;1069;-76
2024/01/05 01:59:37;;;;;;;;;;;;;;;20.97;28.80;97145.81;4977719;28;1012;-76
2024/01/05 02:02:03;;;;;;;;;;;;;;;20.81;28.97;97150.44;4977700;28;1486;-76
2024/01/05 02:04:28;;;;;;;;;;;;;;;21.19;28.40;97157.91;4977708;28;1005;-76
2024/01/05 02:06:54;;;;;;;;;;;;;;;21.07;28.62;97162.38;4979305;28;1296;-76
2024/01/05 02:09:19;;;;;;;;;;;;;;;21.43;28.11;97172.38;4981673;28;899;-76
2024/01/05 02:11:45;;;;;;;;;;;;;;;21.41;28.46;97174.09;4942429;28;1377;-77
2024/01/05 02:14:11;;;;;;;;;;;;;;;21.25;28.73;97189.22;4958996;28;1910;-77
2024/01/05 02:16:36;;;;;;;;;;;;;;;21.64;27.81;97182.06;4958811;28;1138;-76
2024/01/05 02:19:02;;;;;;;;;;;;;;;21.18;28.74;97195.94;4958686;28;1200;-76
2024/01/05 02:21:29;;;;;;;;;;;;;;;21.02;28.89;97211.06;4961569;28;1415;-77
2024/01/05 02:23:54;;;;;;;;;;;;;;;20.88;29.08;97213.63;4944593;29;1164;-77
2024/01/05 02:26:20;;;;;;;;;;;;;;;21.04;29.14;97210.63;4939730;29;992;-77
2024/01/05 02:28:45;;;;;;;;;;;;;;;21.04;28.59;97213.44;4939512;29;952;-76
2024/01/05 02:31:11;;;;;;;;;;;;;;;21.14;28.94;97229.25;4938957;29;1505;-77
2024/01/05 02:33:37;;;;;;;;;;;;;;;21.12;28.76;97220.41;4919869;29;1899;-76
2024/01/05 02:36:03;;;;;;;;;;;;;;;21.10;28.84;97224.97;4904709;29;1123;-76
2024/01/05 02:38:29;;;;;;;;;;;;;;;21.13;28.93;97226.84;4920207;29;1039;-77
2024/01/05 02:40:55;;;;;;;;;;;;;;;21.45;28.12;97234.16;4920065;29;1487;-77
2024/01/05 02:43:21;;;;;;;;;;;;;;;21.59;28.06;97244.94;4948941;29;1000;-76
2024/01/05 02:45:47;;;;;;;;;;;;;;;21.24;28.44;97235.72;4958176;29;956;-76
2024/01/05 02:48:12;;;;;;;;;;;;;;;20.92;29.07;97245.38;4958051;28;1265;-76
2024/01/05 02:50:38;;;;;;;;;;;;;;;20.77;29.06;97251.53;4957806;29;1332;-76
2024/01/05 02:53:04;;;;;;;;;;;;;;;20.93;29.14;97252.63;4958037;29;1991;-77
2024/01/05 02:55:29;;;;;;;;;;;;;;;21.24;28.63;97249.88;4958061;29;983;-76
2024/01/05 02:57:55;;;;;;;;;;;;;;;21.30;28.48;97254.53;4958332;29;1041;-77
2024/01/05 03:00:20;;;;;;;;;;;;;;;21.40;28.06;97246.06;4963159;28;961;-76
2024/01/05 03:02:46;;;;;;;;;;;;;;;21.21;28.55;97251.59;5015908;28;1295;-77
2024/01/05 03:05:11;;;;;;;;;;;;;;;21.37;28.24;97252.69;4999848;28;1116;-77
2024/01/05 03:07:37;;;;;;;;;;;;;;;21.48;28.04;97259.50;5000338;28;928;-77
2024/01/05 03:10:03;;;;;;;;;;;;;;;21.01;28.51;97259.59;4987365;28;1120;-76
2024/01/05 03:12:28;;;;;;;;;;;;;;;20.65;29.41;97266.50;5057786;28;1906;-76
2024/01/05 03:14:54;;;;;;;;;;;;;;;20.75;29.36;97265.34;5040395;28;927;-76
2024/01/05 03:17:19;;;;;;;;;;;;;;;21.12;28.76;97267.72;5058020;28;925;-77
2024/01/05 03:19:45;;;;;;;;;;;;;;;21.24;28.66;97275.34;5015407;28;1147;-76
2024/01/05 03:22:11;;;;;;;;;;;;;;;21.58;27.92;97268.84;4999162;28;1367;-77
2024/01/05 03:24:36;;;;;;;;;;;;;;;20.85;28.93;97279.59;4998836;28;1350;-76
2024/01/05 03:27:04;;;;;;;;;;;;;;;21.21;28.59;97279.88;5014130;28;1532;-77
2024/01/05 03:29:29;;;;;;;;;;;;;;;21.39;28.28;97275.63;4984137;28;1565;-77
2024/01/05 03:31:55;;;;;;;;;;;;;;;21.21;28.80;97287.59;5016218;28;1139;-77
2024/01/05 03:34:21;;;;;;;;;;;;;;;21.38;28.56;97294.66;5015955;28;1902;-76
2024/01/05 03:36:47;;;;;;;;;;;;;;;21.02;28.90;97295.13;4983472;28;1169;-76
2024/01/05 03:39:12;;;;;;;;;;;;;;;20.62;29.04;97290.03;4974846;28;1373;-76
2024/01/05 03:41:38;;;;;;;;;;;;;;;20.53;29.59;97295.59;4964033;28;1202;-77
2024/01/05 03:44:04;;;;;;;;;;;;;;;21.16;28.76;97288.97;4980143;28;976;-76
2024/01/05 03:46:29;;;;;;;;;;;;;;;21.32;28.54;97302.16;4979732;28;1532;-76
2024/01/05 03:48:55;;;;;;;;;;;;;;;21.14;28.51;97301.97;4958989;28;1462;-77
2024/01/05 03:51:21;;;;;;;;;;;;;;;21.30;28.67;97299.81;5020414;28;1414;-77
2024/01/05 03:53:46;;;;;;;;;;;;;;;21.51;28.02;97303.88;5001993;28;1914;-77
2024/01/05 03:56:12;;;;;;;;;;;;;;;21.41;28.30;97299.41;4995222;28;1679;-77
2024/01/05 03:58:37;;;;;;;;;;;;;;;21.41;28.42;97315.59;5015534;28;977;-76
2024/01/05 04:01:03;;;;;;;;;;;;;;;21.23;28.29;97305.66;5015266;28;877;-76
2024/01/05 04:03:29;;;;;;;;;;;;;;;21.04;28.50;97318.09;4995429;28;1560;-77
2024/01/05 04:05:54;;;;;;;;;;;;;;;20.80;29.13;97315.66;4983112;28;1093;-76
2024/01/05 04:08:20;;;;;;;;;;;;;;;21.06;28.73;97329.75;4997758;28;1463;-77
2024/01/05 04:10:46;;;;;;;;;;;;;;;21.27;28.38;97339.50;5004406;28;938;-76
2024/01/05 04:13:11;;;;;;;;;;;;;;;21.11;28.79;97337.63;4965501;28;1906;-77
2024/01/05 04:15:37;;;;;;;;;;;;;;;21.46;28.41;97346.13;4998797;28;1136;-76
2024/01/05 04:18:03;;;;;;;;;;;;;;;21.45;28.36;97351.00;5015188;28;1029;-77
2024/01/05 04:20:29;;;;;;;;;;;;;;;21.47;28.20;97350.53;4982712;28;952;-77
2024/01/05 04:22:54;;;;;;;;;;;;;;;21.10;28.55;97357.91;4998195;28;1525;-77
2024/01/05 04:25:20;;;;;;;;;;;;;;;20.92;28.44;97358.50;5029089;28;1166;-76
2024/01/05 04:27:46;;;;;;;;;;;;;;;20.97;29.03;97361.53;5022528;28;1258;-77
2024/01/05 04:30:11;;;;;;;;;;;;;;;21.09;28.56;97365.59;5022343;28;1055;-76
2024/01/05 04:32:37;;;;;;;;;;;;;;;21.22;28.47;97372.00;5005644;28;1903;-77
2024/01/05 04:35:03;;;;;;;;;;;;;;;21.29;28.55;97371.75;5017666;28;1068;-77
2024/01/05 04:37:28;;;;;;;;;;;;;;;21.41;28.07;97375.03;5017971;28;950;-76
2024/01/05 04:39:54;;;;;;;;;;;;;;;21.31;28.47;97379.81;5034192;28;983;-77
2024/01/05 04:42:20;;;;;;;;;;;;;;;21.06;28.57;97380.66;5018087;28;1053;-76
2024/01/05 04:44:45;;;;;;;;;;;;;;;21.16;28.51;97390.03;5000691;28;1516;-76
2024/01/05 04:47:11;;;;;;;;;;;;;;;20.81;29.04;97396.41;5034375;28;1053;-77
2024/01/05 04:49:36;;;;;;;;;;;;;;;20.79;29.25;97398.13;5034101;28;1054;-77
2024/01/05 04:52:02;;;;;;;;;;;;;;;20.79;29.16;97396.09;5034611;28;980;-77
2024/01/05 04:54:27;;;;;;;;;;;;;;;21.24;28.58;97402.66;4997162;28;1910;-76
2024/01/05 04:56:53;;;;;;;;;;;;;;;21.43;28.31;97395.16;4981799;28;1376;-77
2024/01/05 04:59:22;;;;;;;;;;;;;;;21.30;28.45;97401.66;4998018;28;1040;-76
2024/01/05 05:01:47;;;;;;;;;;;;;;;21.21;28.95;97404.38;5014334;28;1000;-76
2024/01/05 05:04:14;;;;;;;;;;;;;;;21.32;28.71;97410.47;4981872;28;984;-76
2024/01/05 05:06:39;;;;;;;;;;;;;;;20.80;29.45;97411.81;5005988;28;1226;-77
2024/01/05 05:09:05;;;;;;;;;;;;;;;20.59;29.63;97412.50;5056135;28;902;-76
2024/01/05 05:11:31;;;;;;;;;;;;;;;21.03;28.95;97415.50;5056294;28;868;-76
2024/01/05 05:13:56;;;;;;;;;;;;;;;21.37;28.52;97411.94;5055831;28;1906;-76
2024/01/05 05:16:22;;;;;;;;;;;;;;;21.58;28.35;97416.06;5055994;28;919;-76
2024/01/05 05:18:49;;;;;;;;;;;;;;;21.71;28.07;97422.47;5021874;28;1298;-76
2024/01/05 05:21:14;;;;;;;;;;;;;;;21.32;28.41;97426.66;5038964;28;914;-76
2024/01/05 05:23:40;;;;;;;;;;;;;;;20.89;29.24;97435.78;5056255;28;946;-76
2024/01/05 05:26:06;;;;;;;;;;;;;;;20.85;29.23;97438.72;5022122;28;1152;-76
2024/01/05 05:28:31;;;;;;;;;;;;;;;20.79;29.38;97435.66;5055895;28;923;-75
2024/01/05 05:30:57;;;;;;;;;;;;;;;21.47;28.29;97441.13;5022143;28;920;-75
2024/01/05 05:33:23;;;;;;;;;;;;;;;21.56;28.28;97446.88;5038052;28;1882;-76
2024/01/05 05:35:49;;;;;;;;;;;;;;;21.25;28.78;97447.50;5038436;28;1254;-76
2024/01/05 05:38:14;;;;;;;;;;;;;;;21.58;27.98;97438.69;5037899;28;921;-76
2024/01/05 05:40:40;;;;;;;;;;;;;;;21.18;28.68;97444.09;5038759;28;988;-76
2024/01/05 05:43:06;;;;;;;;;;;;;;;20.73;29.51;97437.47;5062139;28;932;-76
2024/01/05 05:45:31;;;;;;;;;;;;;;;20.86;29.44;97450.81;5062762;28;990;-75
2024/01/05 05:47:57;;;;;;;;;;;;;;;21.24;28.86;97454.41;5028234;28;1293;-76
2024/01/05 05:50:22;;;;;;;;;;;;;;;21.58;28.39;97450.03;5044797;28;1123;-76
2024/01/05 05:52:51;;;;;;;;;;;;;;;20.97;29.11;97463.34;5044474;28;1985;-76
2024/01/05 05:55:17;;;;;;;;;;;;;;;21.32;28.76;97467.06;5045043;28;755;-76
2024/01/05 05:57:42;;;;;;;;;;;;;;;21.54;28.09;97483.31;5044531;28;920;-76
2024/01/05 06:00:08;;;;;;;;;;;;;;;21.51;28.27;97484.25;5044805;28;995;-76
2024/01/05 06:02:34;;;;;;;;;;;;;;;21.02;29.21;97490.28;5044411;28;1106;-75
2024/01/05 06:04:59;;;;;;;;;;;;;;;20.74;29.60;97484.31;5044378;28;1192;-76
2024/01/05 06:07:25;;;;;;;;;;;;;;;21.26;28.94;97485.84;5044401;28;813;-75
2024/01/05 06:09:51;;;;;;;;;;;;;;;21.03;29.37;97495.47;5061679;28;907;-76
2024/01/05 06:12:17;;;;;;;;;;;;;;;21.06;29.32;97505.09;5062005;28;1902;-76
2024/01/05 06:14:44;;;;;;;;;;;;;;;21.07;29.08;97503.84;5043974;28;1299;-76
2024/01/05 06:17:09;;;;;;;;;;;;;;;21.29;29.06;97503.94;5027791;28;1107;-76
2024/01/05 06:19:35;;;;;;;;;;;;;;;21.45;28.53;97511.53;5061964;28;938;-76
2024/01/05 06:22:00;;;;;;;;;;;;;;;21.46;28.49;97513.13;5044406;28;879;-75
2024/01/05 06:24:26;;;;;;;;;;;;;;;21.23;28.79;97520.69;5044291;28;850;-75
2024/01/05 06:26:52;;;;;;;;;;;;;;;21.07;29.15;97518.00;5044013;28;778;-76
2024/01/05 06:29:17;;;;;;;;;;;;;;;20.88;29.48;97519.00;5043874;28;983;-75
2024/01/05 06:31:43;;;;;;;;;;;;;;;21.12;29.22;97525.91;5062041;28;758;-76
2024/01/05 06:34:08;;;;;;;;;;;;;;;21.26;28.86;97525.47;5022573;28;1902;-75
2024/01/05 06:36:34;;;;;;;;;;;;;;;21.32;28.74;97523.66;5006510;28;915;-76
2024/01/05 06:39:00;;;;;;;;;;;;;;;21.38;28.56;97521.06;5039595;28;946;-76
2024/01/05 06:41:25;;;;;;;;;;;;;;;21.48;28.49;97524.78;5019405;28;1102;-76
2024/01/05 06:43:51;;;;;;;;;;;;;;;21.30;28.74;97520.53;5002951;28;774;-76
2024/01/05 06:46:17;;;;;;;;;;;;;;;21.12;29.15;97519.47;5003226;28;772;-76
2024/01/05 06:48:43;;;;;;;;;;;;;;;20.77;29.78;97514.47;5002799;28;1297;-75
2024/01/05 06:51:08;;;;;;;;;;;;;;;21.38;28.63;97514.59;5019431;28;833;-76
2024/01/05 06:53:34;;;;;;;;;;;;;;;21.55;28.58;97527.34;5001250;28;1919;-76
2024/01/05 06:56:00;;;;;;;;;;;;;;;21.22;28.98;97541.75;4999932;28;784;-75
2024/01/05 06:58:27;;;;;;;;;;;;;;;21.44;28.72;97547.53;5000057;28;1791;-77
2024/01/05 07:00:53;;;;;;;;;;;;;;;21.35;28.54;97566.44;4999890;28;1153;-76
2024/01/05 07:03:18;;;;;;;;;;;;;;;21.03;29.12;97562.56;5016036;28;720;-77
2024/01/05 07:05:44;;;;;;;;;;;;;;;20.88;29.36;97567.09;5016525;28;908;-76
2024/01/05 07:08:09;;;;;;;;;;;;;;;21.24;29.25;97567.59;5016333;28;821;-75
2024/01/05 07:10:35;;;;;;;;;;;;;;;21.60;28.70;97560.75;5016165;28;1408;-76
2024/01/05 07:13:00;;;;;;;;;;;;;;;21.45;28.60;97570.97;5046508;28;1906;-76
2024/01/05 07:15:26;;;;;;;;;;;;;;;21.51;28.76;97574.84;5058426;28;789;-76
2024/01/05 07:17:51;;;;;;;;;;;;;;;21.55;28.62;97575.47;5035701;28;892;-75
2024/01/05 07:20:17;;;;;;;;;;;;;;;21.39;29.00;97579.25;5019171;28;979;-76
2024/01/05 07:22:43;;;;;;;;;;;;;;;21.08;29.28;97581.81;5035881;28;924;-76
2024/01/05 07:25:09;;;;;;;;;;;;;;;20.71;29.66;97598.28;5003066;28;780;-76
2024/01/05 07:27:36;;;;;;;;;;;;;;;20.71;29.90;97609.59;5019345;28;1022;-75
2024/01/05 07:30:01;;;;;;;;;;;;;;;21.39;28.91;97606.75;5003032;28;851;-75
2024/01/05 07:32:27;;;;;;;;;;;;;;;21.47;28.61;97608.13;5002641;28;1985;-76
2024/01/05 07:34:53;;;;;;;;;;;;;;;21.58;28.37;97619.88;5018323;28;1155;-76
2024/01/05 07:37:19;;;;;;;;;;;;;;;21.44;28.59;97626.00;5019263;28;824;-76
2024/01/05 07:39:45;;;;;;;;;;;;;;;21.24;28.57;97638.31;5035166;28;1022;-76
2024/01/05 07:42:10;;;;;;;;;;;;;;;21.50;28.20;97635.50;5035634;28;775;-77
2024/01/05 07:44:36;;;;;;;;;;;;;;;21.10;28.86;97641.56;5035807;28;1106;-76
2024/01/05 07:47:01;;;;;;;;;;;;;;;20.78;29.46;97648.97;5019201;28;1303;-76
2024/01/05 07:49:27;;;;;;;;;;;;;;;21.01;29.14;97647.09;5018356;28;1129;-76
2024/01/05 07:51:53;;;;;;;;;;;;;;;21.37;28.90;97651.72;5039627;28;826;-76
2024/01/05 07:54:18;;;;;;;;;;;;;;;21.55;28.28;97649.09;5039707;28;1894;-75
2024/01/05 07:56:44;;;;;;;;;;;;;;;21.39;28.55;97660.53;5039238;28;926;-76
2024/01/05 07:59:09;;;;;;;;;;;;;;;21.62;28.42;97671.53;5039496;28;1243;-76
2024/01/05 08:01:35;;;;;;;;;;;;;;;21.11;28.91;97688.41;5039593;28;901;-76
2024/01/05 08:04:01;;;;;;;;;;;;;;;20.78;29.39;97688.56;5056824;28;803;-76
2024/01/05 08:06:26;;;;;;;;;;;;;;;20.66;29.58;97708.28;5039411;28;770;-76
2024/01/05 08:08:52;;;;;;;;;;;;;;;21.07;29.15;97710.34;5039176;28;911;-77
2024/01/05 08:11:17;;;;;;;;;;;;;;;21.27;28.97;97725.13;5034826;28;907;-77
2024/01/05 08:13:43;;;;;;;;;;;;;;;21.21;28.74;97726.13;5034274;28;1946;-76
2024/01/05 08:16:09;;;;;;;;;;;;;;;21.56;28.26;97724.31;5001966;28;1147;-76
2024/01/05 08:18:35;;;;;;;;;;;;;;;21.77;28.13;97732.13;5017829;28;867;-77
2024/01/05 08:21:02;;;;;;;;;;;;;;;21.28;28.44;97738.03;5001826;28;1130;-76
2024/01/05 08:23:31;;;;;;;;;;;;;;;20.91;28.79;97736.66;5017889;28;1228;-76
2024/01/05 08:25:57;;;;;;;;;;;;;;;20.74;29.27;97733.09;5001885;28;1211;-76
2024/01/05 08:28:22;;;;;;;;;;;;;;;21.37;28.54;97742.28;5018123;28;811;-76
2024/01/05 08:30:48;;;;;;;;;;;;;;;21.39;28.47;97746.22;5018046;28;1136;-76
2024/01/05 08:33:14;;;;;;;;;;;;;;;21.61;28.04;97752.06;5017926;28;1974;-76
2024/01/05 08:35:39;;;;;;;;;;;;;;;21.10;28.34;97751.91;5001734;28;1053;-76
2024/01/05 08:38:05;;;;;;;;;;;;;;;20.51;29.11;97741.78;5034362;28;937;-76
2024/01/05 08:40:30;;;;;;;;;;;;;;;20.54;28.99;97741.72;5034794;28;1303;-76
2024/01/05 08:42:56;;;;;;;;;;;;;;;20.86;28.78;97745.69;5017841;28;1198;-76
2024/01/05 08:45:22;;;;;;;;;;;;;;;21.53;27.98;97742.97;5039366;28;974;-76
2024/01/05 08:47:48;;;;;;;;;;;;;;;21.61;27.71;97743.56;5039232;28;1022;-76
2024/01/05 08:50:16;;;;;;;;;;;;;;;21.32;28.21;97738.75;5005954;28;1119;-76
2024/01/05 08:52:43;;;;;;;;;;;;;;;21.65;27.44;97744.22;5039078;28;1903;-76
2024/01/05 08:55:09;;;;;;;;;;;;;;;21.09;28.23;97747.50;5055489;28;1280;-76
2024/01/05 08:57:35;;;;;;;;;;;;;;;20.67;28.85;97744.59;5038736;28;936;-76
2024/01/05 09:00:00;;;;;;;;;;;;;;;20.94;28.83;97735.78;5039063;28;960;-76
2024/01/05 09:02:26;;;;;;;;;;;;;;;21.21;28.51;97743.91;5038597;28;1030;-76
2024/01/05 09:04:51;;;;;;;;;;;;;;;21.60;27.64;97750.44;5038409;28;951;-76
2024/01/05 09:07:17;;;;;;;;;;;;;;;21.60;27.73;97750.44;5022296;28;1113;-76
2024/01/05 09:09:42;;;;;;;;;;;;;;;21.20;27.94;97752.84;5038677;28;1006;-76
2024/01/05 09:12:08;;;;;;;;;;;;;;;21.01;28.62;97740.44;5037243;28;1957;-75
2024/01/05 09:14:36;;;;;;;;;;;;;;;21.49;28.13;97736.63;5050192;28;1979;-74
2024/01/05 09:17:02;;;;;;;;;;;;;;;21.70;28.10;97738.00;5051002;28;1936;-73
2024/01/05 09:19:27;;;;;;;;;;;;;;;21.65;28.55;97738.56;5054633;28;1820;-71
2024/01/05 09:21:53;;;;;;;;;;;;;;;21.76;28.42;97739.03;5053926;28;1789;-75
2024/01/05 09:24:18;;;;;;;;;;;;;;;21.61;29.05;97737.91;5054598;28;1726;-75
2024/01/05 09:26:44;;;;;;;;;;;;;;;21.42;29.09;97741.72;5054969;28;1906;-75
2024/01/05 09:29:10;;;;;;;;;;;;;;;21.49;29.44;97744.31;5012537;28;1633;-77
2024/01/05 09:31:35;;;;;;;;;;;;;;;20.90;30.10;97735.09;4996636;28;1822;-75
2024/01/05 09:34:01;;;;;;;;;;;;;;;20.97;30.30;97739.75;4995153;28;1983;-75
2024/01/05 09:36:26;;;;;;;;;;;;;;;20.80;30.65;97747.50;5013248;28;1455;-75
2024/01/05 09:38:52;;;;;;;;;;;;;;;20.88;30.28;97754.56;4996948;28;1023;-76
2024/01/05 09:41:17;;;;;;;;;;;;;;;21.27;29.79;97758.28;5013859;28;957;-75
2024/01/05 09:43:43;;;;;;;;;;;;;;;21.32;29.33;97761.38;5013501;28;984;-74
2024/01/05 09:46:09;;;;;;;;;;;;;;;21.50;29.22;97766.53;4980829;28;1137;-75
2024/01/05 09:48:35;;;;;;;;;;;;;;;21.56;28.88;97783.75;5013212;28;1140;-75
2024/01/05 09:51:01;;;;;;;;;;;;;;;21.62;28.78;97786.81;4977377;28;984;-75
2024/01/05 09:53:26;;;;;;;;;;;;;;;21.78;28.71;97779.03;4977505;28;1906;-76
2024/01/05 09:55:52;;;;;;;;;;;;;;;21.17;29.48;97774.31;4993728;28;1021;-75
2024/01/05 09:58:17;;;;;;;;;;;;;;;20.80;30.00;97770.13;4973956;28;1026;-75
2024/01/05 10:00:45;;;;;;;;;;;;;;;21.04;29.84;97779.16;4986912;28;960;-75
2024/01/05 10:03:12;;;;;;;;;;;;;;;21.31;29.12;97776.00;4980791;28;1044;-75
2024/01/05 10:05:37;;;;;;;;;;;;;;;21.62;28.60;97773.47;5013037;28;935;-75
2024/01/05 10:08:04;;;;;;;;;;;;;;;21.60;28.50;97767.44;4997212;28;934;-75
2024/01/05 10:10:48;;;;;;;;;;;;;;;21.55;28.65;97773.66;4980678;28;1192;-75
2024/01/05 10:13:14;;;;;;;;;;;;;;;21.37;29.04;97767.75;4980588;28;1902;-75
2024/01/05 10:16:04;;;;;;;;;;;;;;;20.98;29.51;97761.13;4996810;28;772;-75
2024/01/05 10:18:30;;;;;;;;;;;;;;;20.73;29.54;97765.44;4995072;28;962;-75
2024/01/05 10:20:57;;;;;;;;;;;;;;;21.11;29.17;97773.28;4993911;28;798;-76
2024/01/05 10:23:22;;;;;;;;;;;;;;;21.60;28.47;97781.59;4977217;28;1076;-75
2024/01/05 10:25:49;;;;;;;;;;;;;;;21.25;29.03;97772.91;4960979;28;815;-75
2024/01/05 10:28:23;;;;;;;;;;;;;;;21.73;28.14;97773.13;4983892;28;985;-75
2024/01/05 10:30:48;;;;;;;;;;;;;;;21.13;29.17;97773.63;5041006;28;916;-76
2024/01/05 10:33:16;;;;;;;;;;;;;;;20.91;29.41;97769.81;5040974;28;1914;-75
2024/01/05 10:35:44;;;;;;;;;;;;;;;20.96;29.24;97761.59;5041264;28;1070;-76
2024/01/05 10:38:11;;;;;;;;;;;;;;;21.31;28.83;97761.84;5041279;28;906;-76
2024/01/05 10:40:37;;;;;;;;;;;;;;;21.22;29.18;97753.97;5041319;28;919;-76
2024/01/05 10:43:09;;;;;;;;;;;;;;;21.33;28.54;97756.50;5040760;28;906;-76
2024/01/05 10:45:35;;;;;;;;;;;;;;;21.20;28.93;97753.63;5040479;28;919;-76
2024/01/05 10:48:01;;;;;;;;;;;;;;;21.67;28.29;97758.75;5040744;28;1218;-76
2024/01/05 10:50:27;;;;;;;;;;;;;;;21.14;28.82;97743.28;5023907;28;1011;-76
2024/01/05 10:52:52;;;;;;;;;;;;;;;20.86;29.00;97744.91;5040646;28;1902;-76
2024/01/05 10:55:18;;;;;;;;;;;;;;;20.93;28.78;97744.69;5058160;28;969;-76
2024/01/05 10:57:44;;;;;;;;;;;;;;;21.16;28.80;97750.09;5040850;28;1161;-75
2024/01/05 11:00:09;;;;;;;;;;;;;;;21.42;28.34;97747.38;5040848;28;914;-74
2024/01/05 11:02:39;;;;;;;;;;;;;;;21.77;27.77;97745.50;5058573;28;915;-75
2024/01/05 11:05:07;;;;;;;;;;;;;;;20.94;28.98;97746.31;5008081;28;1186;-77
2024/01/05 11:07:33;;;;;;;;;;;;;;;20.86;29.15;97740.03;5024721;28;974;-76
2024/01/05 11:10:17;;;;;;;;;;;;;;;20.70;28.92;97737.25;5040283;28;817;-76
2024/01/05 11:12:46;;;;;;;;;;;;;;;20.53;29.20;97739.34;5057865;28;1910;-76
2024/01/05 11:15:11;;;;;;;;;;;;;;;21.08;29.32;97741.03;5058072;28;881;-76
2024/01/05 11:17:57;;;;;;;;;;;;;;;21.85;28.21;97747.63;5040439;28;1112;-75
2024/01/05 11:20:29;;;;;;;;;;;;;;;22.25;28.01;97741.53;5040330;28;887;-75
2024/01/05 11:22:54;;;;;;;;;;;;;;;22.48;27.85;97742.38;5039891;28;1246;-76
2024/01/05 11:25:20;;;;;;;;;;;;;;;22.32;28.04;97741.28;5040418;28;929;-76
2024/01/05 11:27:46;;;;;;;;;;;;;;;22.25;27.89;97752.88;4999442;28;1129;-76
2024/01/05 11:30:11;;;;;;;;;;;;;;;22.14;27.76;97746.75;4967207;28;1096;-76
2024/01/05 11:32:46;;;;;;;;;;;;;;;22.10;27.96;97735.53;4999307;28;1894;-76
2024/01/05 11:35:19;;;;;;;;;;;;;;;21.87;28.24;97749.25;4967841;28;1168;-75
2024/01/05 11:37:48;;;;;;;;;;;;;;;22.22;27.62;97748.09;4999313;28;1097;-76
2024/01/05 11:40:27;;;;;;;;;;;;;;;22.15;27.53;97751.19;4998477;28;984;-76
2024/01/05 11:42:53;;;;;;;;;;;;;;;22.41;27.03;97753.97;4999518;28;1119;-76
2024/01/05 11:45:37;;;;;;;;;;;;;;;22.39;26.88;97770.66;4999284;28;1080;-76
2024/01/05 11:48:03;;;;;;;;;;;;;;;22.31;26.54;97761.59;4999205;28;1192;-76
2024/01/05 11:50:32;;;;;;;;;;;;;;;22.11;26.86;97759.00;4999296;28;1019;-76
2024/01/05 11:53:12;;;;;;;;;;;;;;;21.94;26.76;97766.00;4999321;28;1991;-76
2024/01/05 11:55:41;;;;;;;;;;;;;;;22.02;26.49;97773.00;4999758;28;979;-76
2024/01/05 11:58:07;;;;;;;;;;;;;;;22.61;25.42;97774.34;5003341;28;984;-76
2024/01/05 12:00:33;;;;;;;;;;;;;;;22.30;25.89;97777.00;4979439;28;1076;-76
2024/01/05 12:02:59;;;;;;;;;;;;;;;22.56;25.09;97774.94;4995934;28;1026;-76
2024/01/05 12:05:25;;;;;;;;;;;;;;;22.64;25.22;97779.13;4995719;28;1091;-76
2024/01/05 12:07:54;;;;;;;;;;;;;;;22.66;25.04;97781.47;4995982;28;1006;-76
2024/01/05 12:10:23;;;;;;;;;;;;;;;22.23;25.62;97785.75;4995696;28;983;-76
2024/01/05 12:12:52;;;;;;;;;;;;;;;22.01;25.62;97788.44;4995401;28;1983;-76
2024/01/05 12:15:18;;;;;;;;;;;;;;;21.98;25.63;97807.13;4979252;28;961;-76
2024/01/05 12:17:43;;;;;;;;;;;;;;;21.89;25.65;97797.72;4995727;28;932;-76
2024/01/05 12:20:10;;;;;;;;;;;;;;;22.41;24.85;97788.00;4995641;28;979;-75
2024/01/05 12:22:36;;;;;;;;;;;;;;;22.68;24.40;97801.66;4979084;28;1055;-76
2024/01/05 12:25:01;;;;;;;;;;;;;;;22.66;24.36;97790.78;4995590;28;935;-75
2024/01/05 12:27:35;;;;;;;;;;;;;;;22.44;24.68;97810.56;4978986;28;1162;-76
2024/01/05 12:30:00;;;;;;;;;;;;;;;22.41;24.51;97813.50;4998749;28;1015;-76
2024/01/05 12:32:28;;;;;;;;;;;;;;;22.16;24.93;97817.13;5034211;28;1044;-76
2024/01/05 12:34:53;;;;;;;;;;;;;;;21.62;25.71;97807.44;5039012;28;922;-76
2024/01/05 12:37:19;;;;;;;;;;;;;;;21.87;25.29;97817.22;5057236;28;921;-75
2024/01/05 12:39:45;;;;;;;;;;;;;;;22.30;24.39;97817.47;5057002;28;1001;-76
2024/01/05 12:42:10;;;;;;;;;;;;;;;22.42;24.18;97815.09;5056738;28;1120;-76
2024/01/05 12:44:36;;;;;;;;;;;;;;;22.08;24.80;97822.22;5057077;28;1021;-76
2024/01/05 12:47:01;;;;;;;;;;;;;;;22.51;24.19;97823.69;5038739;28;1186;-76
2024/01/05 12:49:27;;;;;;;;;;;;;;;22.54;23.85;97811.47;5039213;28;919;-76
2024/01/05 12:51:53;;;;;;;;;;;;;;;22.41;23.91;97817.13;5022207;28;973;-76
2024/01/05 12:54:20;;;;;;;;;;;;;;;22.00;24.66;97830.13;5022809;28;1878;-75